createdAt,value
2023-03-15T00:02:10.767Z,6.90
2023-03-15T00:04:38.598Z,7.97
2023-03-15T00:07:08.533Z,5.03
2023-03-15T00:09:36.279Z,10.33
2023-03-15T00:12:08.615Z,6.57
2023-03-15T00:14:37.884Z,8.80
2023-03-15T00:17:07.828Z,7.00
2023-03-15T00:19:39.929Z,5.30
2023-03-15T00:22:08.031Z,5.57
2023-03-15T00:24:36.036Z,5.60
2023-03-15T00:27:05.258Z,6.03
2023-03-15T00:29:33.356Z,4.50
2023-03-15T00:32:06.529Z,5.17
2023-03-15T00:34:38.582Z,4.53
2023-03-15T00:37:06.379Z,5.73
2023-03-15T00:39:37.735Z,3.50
2023-03-15T00:42:05.813Z,4.50
2023-03-15T00:44:36.031Z,4.30
2023-03-15T00:47:03.824Z,3.87
2023-03-15T00:49:36.117Z,3.60
2023-03-15T00:52:09.119Z,4.50
2023-03-15T00:54:37.264Z,8.03
2023-03-15T00:57:10.527Z,5.93
2023-03-15T00:59:40.794Z,3.80
2023-03-15T01:02:08.722Z,2.90
2023-03-15T01:04:36.929Z,6.10
2023-03-15T01:07:06.576Z,3.40
2023-03-15T01:09:35.704Z,11.53
2023-03-15T01:12:03.632Z,8.10
2023-03-15T01:14:34.131Z,7.30
2023-03-15T01:17:02.051Z,3.10
2023-03-15T01:19:29.777Z,5.87
2023-03-15T01:21:57.562Z,6.77
2023-03-15T01:24:26.764Z,4.63
2023-03-15T01:26:54.627Z,6.27
2023-03-15T01:29:25.209Z,3.90
2023-03-15T01:31:53.031Z,5.87
2023-03-15T01:34:24.754Z,3.67
2023-03-15T01:36:55.361Z,4.13
2023-03-15T01:39:23.183Z,3.70
2023-03-15T01:41:52.917Z,3.00
2023-03-15T01:44:21.959Z,2.87
2023-03-15T01:46:50.084Z,2.10
2023-03-15T01:49:29.877Z,3.47
2023-03-15T01:52:00.128Z,3.53
2023-03-15T01:54:31.063Z,1.90
2023-03-15T01:57:06.204Z,3.13
2023-03-15T01:59:36.729Z,2.30
2023-03-15T02:02:06.573Z,3.03
2023-03-15T02:04:38.256Z,2.43
2023-03-15T02:07:07.096Z,3.27
2023-03-15T02:09:45.129Z,2.80
2023-03-15T02:12:17.304Z,4.00
2023-03-15T02:14:45.729Z,3.60
2023-03-15T02:17:16.021Z,3.30
2023-03-15T02:19:51.155Z,1.90
2023-03-15T02:22:31.193Z,3.07
2023-03-15T02:25:05.429Z,2.60
2023-03-15T02:27:36.865Z,2.60
2023-03-15T02:30:08.378Z,2.87
2023-03-15T02:32:36.269Z,6.87
2023-03-15T02:35:07.599Z,3.33
2023-03-15T02:37:38.330Z,3.63
2023-03-15T02:40:21.945Z,1.70
2023-03-15T02:42:54.715Z,2.57
2023-03-15T02:45:25.555Z,1.77
2023-03-15T02:47:58.641Z,5.20
2023-03-15T02:50:28.688Z,3.30
2023-03-15T02:52:58.698Z,2.67
2023-03-15T02:55:35.997Z,2.50
2023-03-15T02:58:05.148Z,5.20
2023-03-15T03:00:32.985Z,3.67
2023-03-15T03:03:00.827Z,2.80
2023-03-15T03:05:31.204Z,2.97
2023-03-15T03:08:03.861Z,3.20
2023-03-15T03:10:37.466Z,3.90
2023-03-15T03:13:07.000Z,3.00
2023-03-15T03:15:35.934Z,5.47
2023-03-15T03:18:14.427Z,4.67
2023-03-15T03:20:47.486Z,3.17
2023-03-15T03:23:15.189Z,2.83
2023-03-15T03:25:45.717Z,2.97
2023-03-15T03:28:20.764Z,4.77
2023-03-15T03:30:50.993Z,3.67
2023-03-15T03:33:18.760Z,6.30
2023-03-15T03:35:46.903Z,3.43
2023-03-15T03:38:16.924Z,2.83
2023-03-15T03:40:47.416Z,3.93
2023-03-15T03:43:21.123Z,5.70
2023-03-15T03:45:52.111Z,2.90
2023-03-15T03:48:19.888Z,2.60
2023-03-15T03:50:50.191Z,4.13
2023-03-15T03:53:21.291Z,3.20
2023-03-15T03:55:54.460Z,2.87
2023-03-15T03:58:23.031Z,10.50
2023-03-15T04:00:56.071Z,8.20
2023-03-15T04:03:27.370Z,7.17
2023-03-15T04:05:56.434Z,4.10
2023-03-15T04:08:27.576Z,6.20
2023-03-15T04:11:04.245Z,3.70
2023-03-15T04:13:34.595Z,4.00
2023-03-15T04:16:06.682Z,2.53
2023-03-15T04:18:37.312Z,4.17
2023-03-15T04:21:10.894Z,4.80
2023-03-15T04:23:41.200Z,5.10
2023-03-15T04:26:08.937Z,5.27
2023-03-15T04:28:39.398Z,4.57
2023-03-15T04:31:10.945Z,3.90
2023-03-15T04:33:39.010Z,3.53
2023-03-15T04:36:07.430Z,5.13
2023-03-15T04:38:35.687Z,4.70
2023-03-15T04:41:11.065Z,3.43
2023-03-15T04:43:39.243Z,4.53
2023-03-15T04:46:10.325Z,6.90
2023-03-15T04:48:43.822Z,10.30
2023-03-15T04:51:12.139Z,6.60
2023-03-15T04:53:42.257Z,3.77
2023-03-15T04:56:11.206Z,5.60
2023-03-15T04:58:39.294Z,3.67
2023-03-15T05:01:11.389Z,14.03
2023-03-15T05:03:39.683Z,5.13
2023-03-15T05:06:09.371Z,3.17
2023-03-15T05:08:40.832Z,2.73
2023-03-15T05:11:08.674Z,8.30
2023-03-15T05:13:38.661Z,5.87
2023-03-15T05:16:11.014Z,5.30
2023-03-15T05:18:38.889Z,4.47
2023-03-15T05:21:07.179Z,7.17
2023-03-15T05:23:44.656Z,4.20
2023-03-15T05:26:13.531Z,5.07
2023-03-15T05:28:45.396Z,4.87
2023-03-15T05:31:14.681Z,3.47
2023-03-15T05:33:47.194Z,6.90
2023-03-15T05:36:15.541Z,4.60
2023-03-15T05:38:46.753Z,5.43
2023-03-15T05:41:18.445Z,8.43
2023-03-15T05:43:49.252Z,4.43
2023-03-15T05:46:18.715Z,3.57
2023-03-15T05:48:50.309Z,5.23
2023-03-15T05:51:18.208Z,5.93
2023-03-15T05:53:48.672Z,3.57
2023-03-15T05:56:18.535Z,5.00
2023-03-15T05:58:48.349Z,3.33
2023-03-15T06:01:16.078Z,3.90
2023-03-15T06:03:45.368Z,4.27
2023-03-15T06:06:13.213Z,7.00
2023-03-15T06:08:46.300Z,7.60
2023-03-15T06:11:24.443Z,4.70
2023-03-15T06:13:57.633Z,7.33
2023-03-15T06:16:28.671Z,10.13
2023-03-15T06:18:58.180Z,7.80
2023-03-15T06:21:26.190Z,13.50
2023-03-15T06:23:54.381Z,6.03
2023-03-15T06:26:26.296Z,6.50
2023-03-15T06:28:54.277Z,6.30
2023-03-15T06:31:23.235Z,6.47
2023-03-15T06:33:51.159Z,5.43
2023-03-15T06:36:20.545Z,6.67
2023-03-15T06:38:48.703Z,9.03
2023-03-15T06:41:22.662Z,4.77
2023-03-15T06:43:50.868Z,5.70
2023-03-15T06:46:19.104Z,5.73
2023-03-15T06:48:49.108Z,4.70
2023-03-15T06:51:19.873Z,11.33
2023-03-15T06:53:57.872Z,6.20
2023-03-15T06:56:25.896Z,6.00
2023-03-15T06:59:00.070Z,9.03
2023-03-15T07:01:28.356Z,5.23
2023-03-15T07:03:57.934Z,6.00
2023-03-15T07:06:27.686Z,2.93
2023-03-15T07:08:57.275Z,7.23
2023-03-15T07:11:25.634Z,9.77
2023-03-15T07:13:55.980Z,11.00
2023-03-15T07:16:26.816Z,7.27
2023-03-15T07:19:01.716Z,6.03
2023-03-15T07:21:29.898Z,8.93
2023-03-15T07:24:00.222Z,6.80
2023-03-15T07:26:29.227Z,4.57
2023-03-15T07:28:59.782Z,4.17
2023-03-15T07:31:27.926Z,4.80
2023-03-15T07:33:56.323Z,5.93
2023-03-15T07:36:24.237Z,4.23
2023-03-15T07:38:52.396Z,5.80
2023-03-15T07:41:23.011Z,3.57
2023-03-15T07:43:50.946Z,6.27
2023-03-15T07:46:18.962Z,11.20
2023-03-15T07:48:49.776Z,3.73
2023-03-15T07:51:17.703Z,5.30
2023-03-15T07:54:01.481Z,3.07
2023-03-15T07:56:30.776Z,4.30
2023-03-15T07:58:59.433Z,3.57
2023-03-15T08:01:27.526Z,2.83
2023-03-15T08:03:55.571Z,3.40
2023-03-15T08:06:26.223Z,2.50
2023-03-15T08:08:54.122Z,5.60
2023-03-15T08:11:27.301Z,4.63
2023-03-15T08:14:00.106Z,10.93
2023-03-15T08:16:28.183Z,3.67
2023-03-15T08:18:56.250Z,3.13
2023-03-15T08:21:35.563Z,6.93
2023-03-15T08:24:06.971Z,7.97
2023-03-15T08:26:34.733Z,6.20
2023-03-15T08:29:08.311Z,6.13
2023-03-15T08:31:36.266Z,3.13
2023-03-15T08:34:04.406Z,5.47
2023-03-15T08:39:31.780Z,4.63
2023-03-15T08:41:59.649Z,4.90
2023-03-15T08:44:28.965Z,3.57
2023-03-15T08:46:57.223Z,3.43
2023-03-15T08:49:25.521Z,3.57
2023-03-15T08:51:53.329Z,2.83
2023-03-15T08:54:22.360Z,8.83
2023-03-15T08:56:50.106Z,3.87
2023-03-15T08:59:31.487Z,2.60
2023-03-15T09:02:03.941Z,2.87
2023-03-15T09:04:39.424Z,8.27
2023-03-15T09:07:07.650Z,2.63
2023-03-15T09:09:36.722Z,2.60
2023-03-15T09:12:05.513Z,3.50
2023-03-15T09:14:33.927Z,5.70
2023-03-15T09:17:06.845Z,3.70
2023-03-15T09:19:34.788Z,2.47
2023-03-15T09:22:16.304Z,3.00
2023-03-15T09:24:44.969Z,3.50
2023-03-15T09:27:13.461Z,3.50
2023-03-15T09:29:41.481Z,3.33
2023-03-15T09:32:12.164Z,2.20
2023-03-15T09:34:47.149Z,3.30
2023-03-15T09:37:18.412Z,2.50
2023-03-15T09:39:50.977Z,4.20
2023-03-15T09:42:27.636Z,3.50
2023-03-15T09:45:06.656Z,3.47
2023-03-15T09:47:42.753Z,2.30
2023-03-15T09:50:19.223Z,1.73
2023-03-15T09:52:52.333Z,4.60
2023-03-15T09:55:23.557Z,6.40
2023-03-15T09:57:58.533Z,4.33
2023-03-15T10:00:32.502Z,3.80
2023-03-15T10:03:08.396Z,5.13
2023-03-15T10:08:26.124Z,4.23
2023-03-15T10:10:55.880Z,2.33
2023-03-15T10:13:34.122Z,2.83
2023-03-15T10:16:11.137Z,3.57
2023-03-15T10:18:50.712Z,3.13
2023-03-15T10:21:32.562Z,2.67
2023-03-15T10:24:05.999Z,3.50
2023-03-15T10:26:37.901Z,3.20
2023-03-15T10:29:17.468Z,2.80
2023-03-15T10:31:47.705Z,2.87
2023-03-15T10:34:18.081Z,4.00
2023-03-15T10:36:52.210Z,4.00
2023-03-15T10:39:21.259Z,5.90
2023-03-15T10:41:51.278Z,3.47
2023-03-15T10:44:22.576Z,5.60
2023-03-15T10:47:22.171Z,3.97
2023-03-15T10:49:58.663Z,4.13
2023-03-15T10:52:35.802Z,3.07
2023-03-15T10:55:08.207Z,2.17
2023-03-15T11:00:40.737Z,1.83
2023-03-15T11:03:14.690Z,2.83
2023-03-15T11:05:54.786Z,2.80
2023-03-15T11:08:25.042Z,4.50
2023-03-15T11:10:59.045Z,4.00
2023-03-15T11:13:29.278Z,3.90
2023-03-15T11:16:04.245Z,2.03
2023-03-15T11:18:36.926Z,2.00
2023-03-15T11:21:09.929Z,2.67
2023-03-15T11:23:39.962Z,3.73
2023-03-15T11:26:08.671Z,2.00
2023-03-15T11:28:39.855Z,2.83
2023-03-15T11:31:11.020Z,1.73
2023-03-15T11:33:47.068Z,1.83
2023-03-15T11:36:20.209Z,5.20
2023-03-15T11:38:49.714Z,2.97
2023-03-15T11:41:30.701Z,3.60
2023-03-15T11:44:05.760Z,3.07
2023-03-15T11:46:37.374Z,3.00
2023-03-15T11:49:13.691Z,2.10
2023-03-15T11:51:45.739Z,1.80
2023-03-15T11:54:15.938Z,3.77
2023-03-15T11:56:51.532Z,2.37
2023-03-15T11:59:21.295Z,3.50
2023-03-15T12:01:52.530Z,5.40
2023-03-15T12:04:47.431Z,3.20
2023-03-15T12:07:39.460Z,2.90
2023-03-15T12:10:22.088Z,2.33
2023-03-15T12:12:58.699Z,2.10
2023-03-15T12:15:48.124Z,2.00
2023-03-15T12:18:22.843Z,2.57
2023-03-15T12:21:06.725Z,2.47
2023-03-15T12:23:39.937Z,2.83
2023-03-15T12:26:12.398Z,3.07
2023-03-15T12:28:44.991Z,2.53
2023-03-15T12:31:15.624Z,2.03
2023-03-15T12:33:48.652Z,4.00
2023-03-15T12:36:33.594Z,2.43
2023-03-15T12:39:05.821Z,2.30
2023-03-15T12:41:40.852Z,3.23
2023-03-15T12:44:28.815Z,4.13
2023-03-15T12:47:02.605Z,2.20
2023-03-15T12:49:40.336Z,3.90
2023-03-15T12:52:27.089Z,2.47
2023-03-15T12:55:03.176Z,3.33
2023-03-15T12:57:33.174Z,6.10
2023-03-15T13:00:08.220Z,4.70
2023-03-15T13:02:43.950Z,6.10
2023-03-15T13:05:31.860Z,5.20
2023-03-15T13:08:10.492Z,5.00
2023-03-15T13:10:48.751Z,4.17
2023-03-15T13:13:27.691Z,3.00
2023-03-15T13:16:06.854Z,4.20
2023-03-15T13:18:43.110Z,3.30
2023-03-15T13:21:17.749Z,2.80
2023-03-15T13:23:51.960Z,3.00
2023-03-15T13:26:44.388Z,3.17
2023-03-15T13:29:19.381Z,2.63
2023-03-15T13:31:51.148Z,2.83
2023-03-15T13:34:22.630Z,2.97
2023-03-15T13:36:56.330Z,3.47
2023-03-15T13:39:28.710Z,4.03
2023-03-15T13:42:03.829Z,3.57
2023-03-15T13:44:32.799Z,3.80
2023-03-15T13:47:01.601Z,3.03
2023-03-15T13:49:33.345Z,2.80
2023-03-15T13:52:07.225Z,4.60
2023-03-15T13:54:42.138Z,4.90
2023-03-15T13:57:16.168Z,4.60
2023-03-15T13:59:54.057Z,3.27
2023-03-15T14:02:25.643Z,3.70
2023-03-15T14:05:00.434Z,3.37
2023-03-15T14:07:32.857Z,4.07
2023-03-15T14:10:24.931Z,4.80
2023-03-15T14:12:54.945Z,5.67
2023-03-15T14:15:25.642Z,4.03
2023-03-15T14:18:03.455Z,3.07
2023-03-15T14:20:41.514Z,3.50
2023-03-15T14:23:12.584Z,3.60
2023-03-15T14:25:45.845Z,4.00
2023-03-15T14:28:24.860Z,3.17
2023-03-15T14:30:54.894Z,3.50
2023-03-15T14:33:32.656Z,3.77
2023-03-15T14:36:01.634Z,4.77
2023-03-15T14:38:34.752Z,3.47
2023-03-15T14:41:22.981Z,2.60
2023-03-15T14:43:53.842Z,4.43
2023-03-15T14:46:23.950Z,10.03
2023-03-15T14:48:53.259Z,7.17
2023-03-15T14:51:24.799Z,3.10
2023-03-15T14:53:56.293Z,6.23
2023-03-15T14:56:25.315Z,2.43
2023-03-15T14:58:55.215Z,4.30
2023-03-15T15:01:30.079Z,2.50
2023-03-15T15:04:03.280Z,3.07
2023-03-15T15:06:33.280Z,2.60
2023-03-15T15:09:02.593Z,3.27
2023-03-15T15:11:31.475Z,2.30
2023-03-15T15:14:01.523Z,4.37
2023-03-15T15:16:33.384Z,2.20
2023-03-15T15:19:01.973Z,3.17
2023-03-15T15:21:34.048Z,2.07
2023-03-15T15:24:03.230Z,3.70
2023-03-15T15:26:34.556Z,3.63
2023-03-15T15:29:06.119Z,3.47
2023-03-15T15:31:35.730Z,2.90
2023-03-15T15:34:03.666Z,5.03
2023-03-15T15:36:33.476Z,4.00
2023-03-15T15:39:06.460Z,2.70
2023-03-15T15:41:37.588Z,4.00
2023-03-15T15:44:13.833Z,3.73
2023-03-15T15:46:41.703Z,4.33
2023-03-15T15:49:28.129Z,4.10
2023-03-15T15:51:56.063Z,6.00
2023-03-15T15:54:26.847Z,7.83
2023-03-15T15:56:57.150Z,5.30
2023-03-15T15:59:34.081Z,5.40
2023-03-15T16:02:10.157Z,3.00
2023-03-15T16:04:40.623Z,4.47
2023-03-15T16:07:11.209Z,8.10
2023-03-15T16:09:40.489Z,5.80
2023-03-15T16:12:13.714Z,6.03
2023-03-15T16:14:43.242Z,4.20
2023-03-15T16:17:15.910Z,5.40
2023-03-15T16:19:44.283Z,6.77
2023-03-15T16:22:12.547Z,3.67
2023-03-15T16:24:45.480Z,4.63
2023-03-15T16:27:15.581Z,6.03
2023-03-15T16:29:48.592Z,4.90
2023-03-15T16:32:32.839Z,5.63
2023-03-15T16:35:10.669Z,5.77
2023-03-15T16:37:41.634Z,5.57
2023-03-15T16:40:18.772Z,4.20
2023-03-15T16:42:49.667Z,4.90
2023-03-15T16:45:20.441Z,8.70
2023-03-15T16:47:48.994Z,4.30
2023-03-15T16:50:19.973Z,3.30
2023-03-15T16:52:49.542Z,5.47
2023-03-15T16:55:21.974Z,4.67
2023-03-15T16:57:49.792Z,4.30
2023-03-15T17:00:24.978Z,4.70
2023-03-15T17:02:53.488Z,4.77
2023-03-15T17:05:25.752Z,4.57
2023-03-15T17:07:54.880Z,4.30
2023-03-15T17:10:25.304Z,3.37
2023-03-15T17:12:53.617Z,3.40
2023-03-15T17:15:25.545Z,4.50
2023-03-15T17:17:53.804Z,5.17
2023-03-15T17:20:28.307Z,3.80
2023-03-15T17:23:04.810Z,6.77
2023-03-15T17:25:35.639Z,3.70
2023-03-15T17:28:06.893Z,5.27
2023-03-15T17:30:37.539Z,5.30
2023-03-15T17:33:06.560Z,5.10
2023-03-15T17:35:38.807Z,5.90
2023-03-15T17:38:08.765Z,6.87
2023-03-15T17:40:37.393Z,5.30
2023-03-15T17:43:08.504Z,4.77
2023-03-15T17:45:42.303Z,7.30
2023-03-15T17:48:10.278Z,6.17
2023-03-15T17:50:38.762Z,5.40
2023-03-15T17:53:08.467Z,5.27
2023-03-15T17:55:36.346Z,4.70
2023-03-15T17:58:04.696Z,7.30
2023-03-15T18:00:32.785Z,6.33
2023-03-15T18:03:04.488Z,7.50
2023-03-15T18:05:32.383Z,6.83
2023-03-15T18:08:02.780Z,7.40
2023-03-15T18:10:35.326Z,9.20
2023-03-15T18:13:03.873Z,9.00
2023-03-15T18:15:40.302Z,6.20
2023-03-15T18:18:10.146Z,6.93
2023-03-15T18:20:40.771Z,7.50
2023-03-15T18:23:09.372Z,7.90
2023-03-15T18:25:37.655Z,9.47
2023-03-15T18:28:05.926Z,6.50
2023-03-15T18:30:34.316Z,10.20
2023-03-15T18:33:05.936Z,15.17
2023-03-15T18:35:40.225Z,16.77
2023-03-15T18:38:10.307Z,19.20
2023-03-15T18:40:38.239Z,11.87
2023-03-15T18:43:10.023Z,11.37
2023-03-15T18:45:38.358Z,14.73
2023-03-15T18:48:09.756Z,9.90
2023-03-15T18:50:41.917Z,11.80
2023-03-15T18:53:10.513Z,28.70
2023-03-15T18:55:39.788Z,27.33
2023-03-15T18:58:13.074Z,21.93
2023-03-15T19:00:48.995Z,18.70
2023-03-15T19:03:22.235Z,21.07
2023-03-15T19:05:55.037Z,18.27
2023-03-15T19:08:25.513Z,20.50
2023-03-15T19:10:59.394Z,16.90
2023-03-15T19:13:27.306Z,13.70
2023-03-15T19:15:56.954Z,17.63
2023-03-15T19:18:28.469Z,12.00
2023-03-15T19:20:58.022Z,15.57
2023-03-15T19:23:25.852Z,15.90
2023-03-15T19:25:53.690Z,17.50
2023-03-15T19:28:24.548Z,16.17
2023-03-15T19:30:57.169Z,15.43
2023-03-15T19:33:24.999Z,15.07
2023-03-15T19:35:53.390Z,11.00
2023-03-15T19:38:22.622Z,16.93
2023-03-15T19:40:56.690Z,17.20
2023-03-15T19:43:24.666Z,16.13
2023-03-15T19:46:00.011Z,14.00
2023-03-15T19:48:31.760Z,15.50
2023-03-15T19:50:59.577Z,12.27
2023-03-15T19:53:32.470Z,17.33
2023-03-15T19:56:05.030Z,19.93
2023-03-15T19:58:35.707Z,19.40
2023-03-15T20:01:03.556Z,14.50
2023-03-15T20:03:38.047Z,14.90
2023-03-15T20:06:08.360Z,24.47
2023-03-15T20:08:40.376Z,17.40
2023-03-15T20:11:09.234Z,20.07
2023-03-15T20:13:38.159Z,25.00
2023-03-15T20:16:09.579Z,23.27
2023-03-15T20:18:40.522Z,23.40
2023-03-15T20:21:08.350Z,25.37
2023-03-15T20:23:40.567Z,28.57
2023-03-15T20:26:10.899Z,35.23
2023-03-15T20:28:38.900Z,31.80
2023-03-15T20:31:12.233Z,33.90
2023-03-15T20:33:40.782Z,33.27
2023-03-15T20:36:11.166Z,33.33
2023-03-15T20:38:46.631Z,37.40
2023-03-15T20:41:15.196Z,32.03
2023-03-15T20:43:48.839Z,32.60
2023-03-15T20:46:19.401Z,34.70
2023-03-15T20:48:47.687Z,37.50
2023-03-15T20:51:16.002Z,36.67
2023-03-15T20:53:46.883Z,30.10
2023-03-15T20:56:14.690Z,23.70
2023-03-15T20:58:42.692Z,20.90
2023-03-15T21:01:19.572Z,28.27
2023-03-15T21:03:56.068Z,16.57
2023-03-15T21:06:24.117Z,16.13
2023-03-15T21:08:53.342Z,23.63
2023-03-15T21:11:21.201Z,23.47
2023-03-15T21:13:49.748Z,16.60
2023-03-15T21:16:18.313Z,16.13
2023-03-15T21:18:51.985Z,18.20
2023-03-15T21:21:21.177Z,21.03
2023-03-15T21:23:49.510Z,18.80
2023-03-15T21:26:18.910Z,21.07
2023-03-15T21:28:47.056Z,22.60
2023-03-15T21:31:16.013Z,17.17
2023-03-15T21:33:43.862Z,20.37
2023-03-15T21:36:11.668Z,15.70
2023-03-15T21:38:39.470Z,15.70
2023-03-15T21:41:11.297Z,21.23
2023-03-15T21:43:41.497Z,18.50
2023-03-15T21:46:14.044Z,27.33
2023-03-15T21:48:43.591Z,18.87
2023-03-15T21:51:14.693Z,22.03
2023-03-15T21:53:46.340Z,20.17
2023-03-15T21:56:14.928Z,19.67
2023-03-15T21:58:44.471Z,19.60
2023-03-15T22:01:13.966Z,24.67
2023-03-15T22:03:44.629Z,18.93
2023-03-15T22:06:13.536Z,30.37
2023-03-15T22:08:42.009Z,26.47
2023-03-15T22:11:18.919Z,18.10
2023-03-15T22:13:47.997Z,17.87
2023-03-15T22:16:16.254Z,15.57
2023-03-15T22:18:52.974Z,13.33
2023-03-15T22:21:21.808Z,16.13
2023-03-15T22:23:50.003Z,17.40
2023-03-15T22:26:18.146Z,12.73
2023-03-15T22:28:46.529Z,14.30
2023-03-15T22:31:17.698Z,18.30
2023-03-15T22:33:48.977Z,14.50
2023-03-15T22:36:20.480Z,13.03
2023-03-15T22:38:50.031Z,14.63
2023-03-15T22:41:19.745Z,13.23
2023-03-15T22:43:52.554Z,15.43
2023-03-15T22:46:22.764Z,11.00
2023-03-15T22:48:52.711Z,10.57
2023-03-15T22:51:20.862Z,23.40
2023-03-15T22:53:50.158Z,16.07
2023-03-15T22:56:18.174Z,21.73
2023-03-15T22:58:48.803Z,19.13
2023-03-15T23:01:16.642Z,23.57
2023-03-15T23:03:45.881Z,21.87
2023-03-15T23:06:14.177Z,25.80
2023-03-15T23:08:43.311Z,30.13
2023-03-15T23:11:12.645Z,29.03
2023-03-15T23:13:48.351Z,23.43
2023-03-15T23:16:17.928Z,29.13
2023-03-15T23:18:53.972Z,23.80
2023-03-15T23:21:23.388Z,20.00
2023-03-15T23:23:54.052Z,28.07
2023-03-15T23:26:25.792Z,22.43
2023-03-15T23:28:53.729Z,18.57
2023-03-15T23:31:21.902Z,18.17
2023-03-15T23:33:51.735Z,18.50
2023-03-15T23:36:22.156Z,16.20
2023-03-15T23:38:53.714Z,20.17
2023-03-15T23:41:22.914Z,19.40
2023-03-15T23:43:53.942Z,20.73
2023-03-15T23:46:23.585Z,18.40
2023-03-15T23:48:56.026Z,20.13
2023-03-15T23:51:24.178Z,22.53
2023-03-15T23:53:54.647Z,18.73
2023-03-15T23:56:22.531Z,16.73
2023-03-15T23:58:52.795Z,15.63
